createdAt,value
2022-12-20T00:05:19.676Z,20.77
2022-12-20T00:12:21.461Z,20.75
2022-12-20T00:19:23.195Z,20.70
2022-12-20T00:26:29.921Z,20.68
2022-12-20T00:33:32.729Z,20.65
2022-12-20T00:40:34.529Z,20.62
2022-12-20T00:47:36.286Z,20.57
2022-12-20T00:54:38.070Z,20.54
2022-12-20T01:01:41.708Z,20.52
2022-12-20T01:08:43.709Z,20.49
2022-12-20T01:15:45.856Z,20.44
2022-12-20T01:22:47.910Z,20.40
2022-12-20T01:29:49.707Z,20.37
2022-12-20T01:36:51.667Z,20.31
2022-12-20T01:43:58.137Z,20.27
2022-12-20T01:50:59.894Z,20.22
2022-12-20T01:58:19.678Z,20.17
2022-12-20T02:05:22.768Z,20.10
2022-12-20T02:12:26.203Z,20.03
2022-12-20T02:19:49.986Z,19.97
2022-12-20T02:27:32.112Z,19.92
2022-12-20T02:34:35.205Z,19.88
2022-12-20T02:41:40.092Z,19.83
2022-12-20T02:48:42.320Z,19.76
2022-12-20T02:55:52.734Z,19.71
2022-12-20T03:03:13.065Z,19.67
2022-12-20T03:10:15.190Z,19.60
2022-12-20T03:17:17.234Z,19.58
2022-12-20T03:24:19.064Z,19.54
2022-12-20T03:31:21.623Z,19.52
2022-12-20T03:38:29.244Z,19.50
2022-12-20T03:45:31.265Z,19.46
2022-12-20T03:52:33.891Z,19.44
2022-12-20T03:59:35.792Z,19.43
2022-12-20T04:06:39.237Z,19.44
2022-12-20T04:13:41.381Z,19.41
2022-12-20T04:20:45.064Z,19.40
2022-12-20T04:27:56.133Z,19.54
2022-12-20T04:34:58.881Z,19.84
2022-12-20T04:42:01.127Z,20.14
2022-12-20T04:49:03.460Z,20.40
2022-12-20T04:56:09.276Z,20.64
2022-12-20T05:03:12.192Z,20.81
2022-12-20T05:10:14.697Z,20.96
2022-12-20T05:17:17.771Z,21.08
2022-12-20T05:24:38.586Z,21.14
2022-12-20T05:31:52.541Z,21.15
2022-12-20T05:39:00.085Z,21.18
2022-12-20T05:46:05.942Z,21.18
2022-12-20T05:53:17.908Z,21.20
2022-12-20T06:00:24.426Z,21.21
2022-12-20T06:07:28.976Z,21.18
2022-12-20T06:14:33.814Z,21.16
2022-12-20T06:21:36.621Z,21.15
2022-12-20T06:28:42.698Z,21.11
2022-12-20T06:35:44.552Z,21.12
2022-12-20T06:42:47.370Z,21.09
2022-12-20T06:49:49.843Z,21.05
2022-12-20T06:56:56.698Z,21.03
2022-12-20T07:03:59.161Z,21.00
2022-12-20T07:11:07.378Z,20.99
2022-12-20T07:18:09.105Z,21.01
2022-12-20T07:25:11.273Z,21.01
2022-12-20T07:32:14.316Z,21.01
2022-12-20T07:39:16.308Z,21.01
2022-12-20T07:46:18.275Z,21.00
2022-12-20T07:53:21.433Z,21.00
2022-12-20T08:00:23.322Z,21.00
2022-12-20T08:07:25.073Z,20.99
2022-12-20T08:14:26.874Z,20.98
2022-12-20T08:21:29.058Z,21.01
2022-12-20T08:28:30.778Z,21.02
2022-12-20T08:35:32.475Z,21.01
2022-12-20T08:42:34.587Z,21.01
2022-12-20T08:49:36.502Z,21.01
2022-12-20T08:56:38.227Z,21.02
2022-12-20T09:03:40.426Z,21.02
2022-12-20T09:10:43.247Z,21.01
2022-12-20T09:17:45.039Z,21.02
2022-12-20T09:24:46.732Z,21.03
2022-12-20T09:31:49.509Z,21.05
2022-12-20T09:38:51.417Z,21.06
2022-12-20T09:45:58.228Z,21.09
2022-12-20T09:53:22.467Z,21.07
2022-12-20T10:00:24.569Z,21.08
2022-12-20T10:07:42.997Z,21.08
2022-12-20T10:15:19.607Z,21.07
2022-12-20T10:22:26.610Z,21.08
2022-12-20T10:29:29.627Z,21.21
2022-12-20T10:36:33.395Z,21.38
2022-12-20T10:43:46.447Z,21.34
2022-12-20T10:50:59.145Z,21.30
2022-12-20T10:58:05.936Z,21.30
2022-12-20T11:05:10.456Z,21.31
2022-12-20T11:12:15.454Z,21.32
2022-12-20T11:19:56.433Z,21.30
2022-12-20T11:27:16.356Z,21.28
2022-12-20T11:34:42.049Z,21.30
2022-12-20T11:42:14.623Z,21.30
2022-12-20T11:49:45.719Z,21.30
2022-12-20T11:56:49.095Z,21.32
2022-12-20T12:04:01.201Z,21.31
2022-12-20T12:11:31.984Z,21.33
2022-12-20T12:18:34.103Z,21.34
2022-12-20T12:25:35.854Z,21.35
2022-12-20T12:32:44.425Z,21.35
2022-12-20T12:40:11.068Z,21.32
2022-12-20T12:47:21.948Z,21.31
2022-12-20T12:54:37.666Z,21.29
2022-12-20T13:01:56.075Z,21.35
2022-12-20T13:09:03.966Z,21.36
2022-12-20T13:16:07.016Z,21.43
2022-12-20T13:23:08.567Z,21.46
2022-12-20T13:30:10.412Z,21.51
2022-12-20T13:37:54.894Z,21.55
2022-12-20T13:44:57.004Z,21.57
2022-12-20T13:52:10.864Z,21.52
2022-12-20T13:59:26.935Z,21.49
2022-12-20T14:06:28.711Z,21.46
2022-12-20T14:13:30.409Z,21.43
2022-12-20T14:20:34.023Z,21.41
2022-12-20T14:27:36.974Z,21.38
2022-12-20T14:34:42.016Z,21.35
2022-12-20T14:41:43.976Z,21.33
2022-12-20T14:48:45.808Z,21.34
2022-12-20T14:55:47.576Z,21.30
2022-12-20T15:03:01.383Z,21.27
2022-12-20T15:10:03.621Z,21.23
2022-12-20T15:17:11.114Z,21.18
2022-12-20T15:24:15.106Z,21.18
2022-12-20T15:31:18.131Z,21.18
2022-12-20T15:38:47.563Z,21.18
2022-12-20T15:45:50.480Z,21.18
2022-12-20T15:52:52.195Z,21.16
2022-12-20T16:00:01.679Z,21.20
2022-12-20T16:07:13.156Z,21.40
2022-12-20T16:14:21.139Z,21.54
2022-12-20T16:21:38.947Z,21.65
2022-12-20T16:28:40.688Z,21.74
2022-12-20T16:35:42.432Z,21.82
2022-12-20T16:42:44.387Z,21.84
2022-12-20T16:49:52.353Z,21.85
2022-12-20T16:56:56.646Z,21.84
2022-12-20T17:03:58.745Z,21.85
2022-12-20T17:11:00.483Z,21.86
2022-12-20T17:18:03.771Z,21.82
2022-12-20T17:25:05.513Z,21.82
2022-12-20T17:32:33.729Z,21.99
2022-12-20T17:39:35.453Z,22.27
2022-12-20T17:46:38.391Z,22.55
2022-12-20T17:53:47.788Z,22.70
2022-12-20T18:00:52.257Z,22.87
2022-12-20T18:08:00.050Z,23.03
2022-12-20T18:15:03.838Z,23.06
2022-12-20T18:22:06.698Z,23.14
2022-12-20T18:29:09.593Z,23.15
2022-12-20T18:36:17.294Z,23.23
2022-12-20T18:43:18.994Z,23.30
2022-12-20T18:50:23.095Z,23.28
2022-12-20T18:57:25.946Z,23.25
2022-12-20T19:04:30.055Z,23.23
2022-12-20T19:11:31.851Z,23.17
2022-12-20T19:18:34.677Z,23.09
2022-12-20T19:25:36.737Z,22.94
2022-12-20T19:32:38.481Z,22.90
2022-12-20T19:39:40.234Z,22.85
2022-12-20T19:46:42.089Z,22.78
2022-12-20T19:53:48.697Z,22.69
2022-12-20T20:00:50.883Z,22.62
2022-12-20T20:14:17.753Z,22.58
2022-12-20T20:22:10.730Z,22.68
2022-12-20T20:29:18.619Z,22.86
2022-12-20T20:36:22.296Z,22.92
2022-12-20T20:43:25.572Z,22.90
2022-12-20T20:50:28.177Z,22.94
2022-12-20T20:57:30.905Z,22.75
2022-12-20T21:04:32.933Z,22.66
2022-12-20T21:11:36.900Z,22.55
2022-12-20T21:18:39.088Z,22.48
2022-12-20T21:25:40.918Z,22.40
2022-12-20T21:32:42.616Z,22.40
2022-12-20T21:39:44.346Z,22.35
2022-12-20T21:46:46.125Z,22.26
2022-12-20T21:53:56.467Z,22.12
2022-12-20T22:00:58.246Z,22.05
2022-12-20T22:08:00.023Z,21.96
2022-12-20T22:15:01.756Z,21.92
2022-12-20T22:22:03.474Z,21.93
2022-12-20T22:29:05.606Z,21.86
2022-12-20T22:36:07.533Z,21.83
2022-12-20T22:43:09.277Z,21.76
2022-12-20T22:50:11.342Z,21.79
2022-12-20T22:57:14.754Z,21.81
2022-12-20T23:04:17.039Z,21.65
2022-12-20T23:11:45.349Z,21.70
2022-12-20T23:18:47.058Z,21.90
2022-12-20T23:25:49.786Z,22.02
2022-12-20T23:32:51.699Z,22.09
2022-12-20T23:39:54.144Z,22.11
2022-12-20T23:46:55.884Z,22.10
2022-12-20T23:53:57.701Z,22.00
